createdAt,value
2019-04-03T00:00:06.388Z,79.50
2019-04-03T00:02:35.204Z,79.90
2019-04-03T00:05:05.733Z,79.80
2019-04-03T00:07:35.925Z,79.80
2019-04-03T00:10:08.146Z,80.10
2019-04-03T00:12:40.328Z,80.70
2019-04-03T00:15:08.037Z,80.60
2019-04-03T00:17:36.853Z,80.70
2019-04-03T00:20:07.803Z,80.60
2019-04-03T00:22:37.968Z,81.20
2019-04-03T00:25:07.807Z,81.50
2019-04-03T00:27:36.556Z,81.30
2019-04-03T00:30:09.078Z,81.60
2019-04-03T00:32:37.981Z,81.50
2019-04-03T00:35:08.139Z,81.50
2019-04-03T00:37:36.964Z,81.50
2019-04-03T00:40:08.838Z,82.00
2019-04-03T00:42:37.629Z,81.70
2019-04-03T00:45:07.298Z,81.90
2019-04-03T00:47:36.196Z,82.00
2019-04-03T00:50:09.171Z,82.50
2019-04-03T00:52:37.931Z,82.60
2019-04-03T00:55:06.780Z,82.60
2019-04-03T00:57:35.571Z,82.60
2019-04-03T01:00:07.354Z,82.60
2019-04-03T01:02:36.075Z,82.80
2019-04-03T01:05:06.381Z,82.90
2019-04-03T01:07:35.203Z,83.00
2019-04-03T01:10:04.734Z,83.40
2019-04-03T01:12:33.633Z,83.70
2019-04-03T01:15:02.579Z,84.00
2019-04-03T01:17:34.207Z,83.80
2019-04-03T01:20:01.889Z,84.30
2019-04-03T01:22:30.611Z,84.60
2019-04-03T01:24:59.578Z,84.80
2019-04-03T01:27:28.420Z,84.80
2019-04-03T01:29:57.252Z,85.00
2019-04-03T01:32:26.042Z,85.00
2019-04-03T01:34:54.924Z,84.80
2019-04-03T01:37:23.748Z,84.80
2019-04-03T01:39:52.583Z,84.70
2019-04-03T01:42:22.454Z,84.70
2019-04-03T01:44:51.980Z,84.90
2019-04-03T01:47:20.757Z,85.00
2019-04-03T01:49:49.548Z,84.60
2019-04-03T01:52:18.867Z,84.90
2019-04-03T01:54:47.695Z,84.90
2019-04-03T01:57:16.500Z,84.90
2019-04-03T01:59:45.244Z,84.90
2019-04-03T02:02:14.092Z,84.90
2019-04-03T02:04:43.080Z,85.20
2019-04-03T02:07:14.354Z,85.30
2019-04-03T02:09:42.351Z,85.40
2019-04-03T02:12:11.100Z,85.70
2019-04-03T02:14:39.967Z,85.50
2019-04-03T02:17:08.791Z,85.80
2019-04-03T02:19:37.547Z,86.20
2019-04-03T02:22:06.244Z,86.20
2019-04-03T02:24:35.060Z,86.20
2019-04-03T02:27:03.816Z,86.30
2019-04-03T02:29:32.618Z,86.50
2019-04-03T02:32:01.801Z,86.80
2019-04-03T02:34:33.723Z,86.90
2019-04-03T02:37:01.141Z,86.90
2019-04-03T02:39:29.987Z,87.20
2019-04-03T02:41:59.062Z,87.00
2019-04-03T02:44:28.120Z,87.10
2019-04-03T02:46:59.530Z,87.20
2019-04-03T02:49:27.428Z,87.40
2019-04-03T02:51:56.958Z,87.50
2019-04-03T02:54:34.767Z,87.30
2019-04-03T02:57:01.582Z,87.50
2019-04-03T02:59:30.336Z,87.40
2019-04-03T03:01:59.373Z,87.80
2019-04-03T03:04:28.358Z,88.00
2019-04-03T03:06:57.150Z,88.20
2019-04-03T03:09:27.367Z,88.10
2019-04-03T03:11:57.146Z,88.10
2019-04-03T03:14:26.437Z,88.10
2019-04-03T03:16:55.681Z,88.50
2019-04-03T03:19:24.646Z,88.60
2019-04-03T03:21:56.413Z,88.60
2019-04-03T03:24:28.293Z,88.80
2019-04-03T03:26:57.006Z,89.10
2019-04-03T03:29:27.542Z,89.30
2019-04-03T03:32:09.359Z,89.30
2019-04-03T03:34:48.042Z,89.30
2019-04-03T03:37:02.119Z,89.50
2019-04-03T03:39:29.474Z,89.50
2019-04-03T03:41:59.116Z,89.20
2019-04-03T03:44:28.835Z,89.70
2019-04-03T03:47:01.169Z,89.20
2019-04-03T03:49:29.960Z,89.20
2019-04-03T03:52:02.713Z,90.00
2019-04-03T03:54:30.829Z,90.00
2019-04-03T03:57:04.223Z,90.00
2019-04-03T03:59:30.615Z,90.00
2019-04-03T04:02:03.244Z,89.90
2019-04-03T04:04:30.671Z,90.00
2019-04-03T04:07:02.019Z,90.00
2019-04-03T04:09:30.927Z,90.00
2019-04-03T04:12:04.362Z,90.00
2019-04-03T04:14:31.735Z,90.00
2019-04-03T04:17:00.685Z,90.00
2019-04-03T04:19:30.843Z,90.00
2019-04-03T04:22:00.213Z,90.00
2019-04-03T04:24:29.159Z,90.10
2019-04-03T04:26:57.908Z,90.00
2019-04-03T04:29:26.749Z,90.10
2019-04-03T04:31:55.709Z,90.10
2019-04-03T04:34:24.892Z,90.10
2019-04-03T04:36:55.342Z,90.10
2019-04-03T04:39:24.039Z,90.10
2019-04-03T04:41:52.868Z,90.10
2019-04-03T04:44:21.700Z,90.20
2019-04-03T04:46:50.423Z,90.00
2019-04-03T04:49:20.678Z,90.20
2019-04-03T04:51:49.707Z,90.40
2019-04-03T04:54:18.441Z,90.70
2019-04-03T04:56:47.464Z,90.50
2019-04-03T04:59:16.204Z,90.60
2019-04-03T05:01:45.355Z,90.50
2019-04-03T05:04:16.002Z,90.40
2019-04-03T05:06:44.864Z,90.30
2019-04-03T05:09:13.622Z,90.40
2019-04-03T05:11:42.424Z,90.40
2019-04-03T05:14:11.123Z,90.20
2019-04-03T05:16:40.044Z,90.20
2019-04-03T05:19:14.739Z,90.20
2019-04-03T05:21:39.364Z,90.20
2019-04-03T05:24:12.638Z,90.20
2019-04-03T05:26:38.516Z,90.40
2019-04-03T05:29:07.474Z,90.30
2019-04-03T05:31:38.570Z,90.30
2019-04-03T05:34:06.795Z,90.60
2019-04-03T05:36:35.542Z,90.50
2019-04-03T05:39:07.018Z,90.50
2019-04-03T05:41:35.829Z,90.60
2019-04-03T05:44:04.650Z,90.60
2019-04-03T05:46:33.429Z,90.60
2019-04-03T05:49:02.302Z,90.50
2019-04-03T05:51:31.392Z,90.10
2019-04-03T05:54:00.290Z,90.10
2019-04-03T05:56:29.104Z,90.00
2019-04-03T05:59:01.289Z,89.60
2019-04-03T06:01:28.255Z,89.30
2019-04-03T06:03:57.085Z,89.40
2019-04-03T06:06:26.093Z,89.20
2019-04-03T06:08:56.560Z,88.50
2019-04-03T06:11:25.402Z,87.70
2019-04-03T06:13:54.143Z,87.00
2019-04-03T06:16:24.517Z,86.80
2019-04-03T06:18:53.484Z,86.00
2019-04-03T06:21:22.326Z,85.40
2019-04-03T06:23:52.723Z,84.70
2019-04-03T06:26:21.651Z,82.40
2019-04-03T06:28:50.404Z,79.90
2019-04-03T06:31:19.237Z,80.20
2019-04-03T06:33:50.911Z,80.30
2019-04-03T06:36:18.512Z,80.40
2019-04-03T06:38:47.236Z,79.80
2019-04-03T06:41:16.186Z,80.00
2019-04-03T06:43:45.044Z,79.40
2019-04-03T06:46:13.811Z,79.70
2019-04-03T06:48:42.742Z,79.40
2019-04-03T06:51:11.505Z,76.50
2019-04-03T06:53:40.324Z,77.70
2019-04-03T06:56:09.228Z,77.50
2019-04-03T06:58:40.055Z,78.20
2019-04-03T07:01:08.661Z,77.40
2019-04-03T07:03:37.508Z,74.90
2019-04-03T07:06:06.597Z,75.30
2019-04-03T07:08:38.084Z,74.00
2019-04-03T07:11:05.893Z,74.40
2019-04-03T07:13:34.684Z,73.90
2019-04-03T07:16:03.428Z,72.90
2019-04-03T07:18:32.284Z,74.30
2019-04-03T07:21:01.053Z,73.20
2019-04-03T07:23:30.271Z,73.10
2019-04-03T07:25:59.275Z,72.00
2019-04-03T07:28:30.222Z,71.10
2019-04-03T07:30:58.675Z,72.60
2019-04-03T07:33:28.664Z,71.60
2019-04-03T07:35:59.279Z,71.40
2019-04-03T07:38:27.980Z,69.70
2019-04-03T07:40:56.726Z,69.80
2019-04-03T07:43:26.872Z,69.40
2019-04-03T07:45:55.963Z,69.90
2019-04-03T07:48:25.082Z,69.70
2019-04-03T07:50:54.019Z,70.50
2019-04-03T07:53:23.089Z,69.80
2019-04-03T07:55:54.975Z,70.30
2019-04-03T07:58:25.110Z,70.60
2019-04-03T08:00:53.364Z,70.00
2019-04-03T08:03:22.212Z,70.20
2019-04-03T08:05:51.037Z,69.60
2019-04-03T08:08:20.031Z,70.20
2019-04-03T08:10:48.804Z,67.50
2019-04-03T08:13:17.636Z,67.50
2019-04-03T08:15:46.818Z,66.00
2019-04-03T08:18:15.566Z,66.70
2019-04-03T08:20:44.388Z,66.50
2019-04-03T08:23:13.261Z,67.20
2019-04-03T08:25:44.924Z,66.10
2019-04-03T08:28:12.453Z,65.10
2019-04-03T08:30:41.310Z,64.90
2019-04-03T08:33:15.826Z,64.10
2019-04-03T08:35:40.598Z,64.40
2019-04-03T08:38:11.007Z,63.70
2019-04-03T08:40:39.935Z,63.70
2019-04-03T08:43:09.087Z,62.40
2019-04-03T08:45:39.164Z,62.00
2019-04-03T08:48:08.222Z,62.00
2019-04-03T08:50:37.070Z,62.40
2019-04-03T08:53:07.967Z,62.10
2019-04-03T08:55:36.355Z,59.90
2019-04-03T08:58:05.194Z,59.80
2019-04-03T09:00:34.078Z,59.80
2019-04-03T09:03:04.078Z,57.30
2019-04-03T09:05:33.237Z,58.30
2019-04-03T09:08:02.143Z,55.90
2019-04-03T09:10:32.183Z,56.10
2019-04-03T09:13:01.444Z,54.80
2019-04-03T09:15:30.364Z,56.20
2019-04-03T09:17:59.423Z,57.40
2019-04-03T09:20:28.348Z,55.20
2019-04-03T09:22:57.212Z,54.30
2019-04-03T09:25:25.950Z,53.40
2019-04-03T09:27:55.035Z,53.40
2019-04-03T09:30:23.996Z,52.90
2019-04-03T09:32:53.682Z,54.10
2019-04-03T09:35:23.332Z,55.80
2019-04-03T09:37:52.248Z,51.90
2019-04-03T09:40:21.429Z,52.10
2019-04-03T09:42:51.551Z,50.90
2019-04-03T09:45:21.064Z,49.40
2019-04-03T09:47:50.188Z,52.00
2019-04-03T09:50:21.950Z,53.80
2019-04-03T09:52:50.652Z,50.60
2019-04-03T09:55:19.748Z,50.30
2019-04-03T09:57:48.897Z,52.40
2019-04-03T10:00:18.396Z,48.10
2019-04-03T10:02:48.839Z,48.70
2019-04-03T10:05:17.620Z,50.30
2019-04-03T10:07:47.068Z,48.60
2019-04-03T10:10:17.036Z,47.60
2019-04-03T10:12:48.007Z,50.30
2019-04-03T10:15:18.485Z,47.20
2019-04-03T10:17:47.578Z,46.40
2019-04-03T10:20:18.222Z,47.80
2019-04-03T10:22:47.422Z,45.20
2019-04-03T10:25:16.445Z,46.10
2019-04-03T10:27:45.572Z,46.90
2019-04-03T10:30:15.661Z,48.00
2019-04-03T10:32:44.624Z,47.00
2019-04-03T10:35:13.612Z,46.30
2019-04-03T10:37:45.601Z,46.60
2019-04-03T10:40:13.106Z,45.70
2019-04-03T10:42:41.939Z,47.00
2019-04-03T10:45:11.552Z,48.10
2019-04-03T10:47:43.710Z,47.00
2019-04-03T10:50:12.125Z,48.10
2019-04-03T10:52:43.978Z,44.70
2019-04-03T10:55:11.621Z,46.10
2019-04-03T10:57:40.656Z,46.00
2019-04-03T11:00:12.318Z,46.60
2019-04-03T11:02:41.132Z,44.70
2019-04-03T11:05:12.890Z,46.80
2019-04-03T11:07:41.703Z,44.00
2019-04-03T11:10:11.445Z,47.10
2019-04-03T11:12:40.267Z,44.40
2019-04-03T11:15:11.692Z,44.20
2019-04-03T11:17:40.948Z,44.10
2019-04-03T11:20:10.933Z,47.20
2019-04-03T11:22:42.149Z,44.90
2019-04-03T11:25:13.865Z,45.20
2019-04-03T11:27:44.095Z,44.30
2019-04-03T11:30:54.599Z,45.60
2019-04-03T11:32:45.158Z,44.00
2019-04-03T11:35:15.030Z,43.50
2019-04-03T11:37:44.251Z,43.50
2019-04-03T11:40:17.764Z,44.10
2019-04-03T11:42:45.839Z,44.80
2019-04-03T11:45:15.325Z,45.30
2019-04-03T11:47:46.177Z,45.90
2019-04-03T11:50:15.654Z,45.20
2019-04-03T11:52:44.557Z,46.60
2019-04-03T11:55:14.045Z,44.70
2019-04-03T11:57:43.033Z,44.60
2019-04-03T12:00:15.530Z,44.30
2019-04-03T12:02:44.793Z,45.00
2019-04-03T12:05:20.495Z,44.80
2019-04-03T12:07:47.584Z,44.50
2019-04-03T12:10:16.860Z,45.70
2019-04-03T12:12:45.965Z,45.50
2019-04-03T12:15:16.427Z,44.80
2019-04-03T12:17:45.561Z,45.90
2019-04-03T12:20:16.578Z,45.70
2019-04-03T12:22:45.645Z,45.60
2019-04-03T12:25:15.185Z,46.90
2019-04-03T12:27:46.056Z,47.20
2019-04-03T12:30:15.123Z,45.20
2019-04-03T12:32:48.746Z,45.00
2019-04-03T12:35:14.490Z,45.10
2019-04-03T12:37:43.636Z,44.40
2019-04-03T12:40:12.893Z,44.90
2019-04-03T12:42:41.772Z,47.10
2019-04-03T12:45:11.263Z,45.30
2019-04-03T12:47:42.989Z,45.30
2019-04-03T12:50:12.907Z,44.50
2019-04-03T12:52:44.003Z,45.20
2019-04-03T12:55:12.125Z,45.70
2019-04-03T12:57:41.004Z,44.10
2019-04-03T13:00:12.982Z,47.00
2019-04-03T13:02:42.478Z,45.50
2019-04-03T13:05:12.094Z,46.30
2019-04-03T13:07:40.959Z,47.10
2019-04-03T13:10:11.366Z,44.40
2019-04-03T13:12:40.255Z,45.40
2019-04-03T13:15:11.441Z,47.00
2019-04-03T13:17:43.236Z,47.30
2019-04-03T13:20:11.325Z,45.00
2019-04-03T13:22:42.559Z,45.90
2019-04-03T13:25:10.716Z,46.60
2019-04-03T13:27:39.773Z,47.90
2019-04-03T13:30:12.416Z,48.40
2019-04-03T13:32:40.858Z,47.70
2019-04-03T13:35:10.216Z,48.40
2019-04-03T13:37:39.032Z,47.70
2019-04-03T13:40:08.808Z,48.30
2019-04-03T13:42:38.031Z,48.80
2019-04-03T13:45:08.425Z,47.30
2019-04-03T13:47:39.729Z,48.50
2019-04-03T13:50:09.717Z,47.70
2019-04-03T13:52:42.302Z,48.60
2019-04-03T13:55:09.713Z,48.80
2019-04-03T13:57:38.702Z,48.30
2019-04-03T14:00:18.707Z,48.30
2019-04-03T14:02:40.002Z,45.20
2019-04-03T14:05:08.951Z,45.60
2019-04-03T14:07:40.570Z,47.20
2019-04-03T14:10:11.895Z,47.90
2019-04-03T14:12:44.158Z,47.20
2019-04-03T14:15:11.596Z,45.60
2019-04-03T14:17:40.423Z,45.40
2019-04-03T14:20:10.835Z,47.90
2019-04-03T14:22:39.733Z,48.30
2019-04-03T14:25:19.730Z,46.80
2019-04-03T14:27:39.553Z,45.70
2019-04-03T14:30:11.788Z,45.90
2019-04-03T14:32:41.190Z,46.20
2019-04-03T14:35:40.594Z,46.00
2019-04-03T14:37:42.263Z,44.40
2019-04-03T14:40:12.687Z,45.10
2019-04-03T14:42:42.168Z,45.90
2019-04-03T14:45:14.439Z,44.80
2019-04-03T14:47:42.021Z,46.80
2019-04-03T14:50:11.265Z,44.90
2019-04-03T14:52:40.189Z,44.40
2019-04-03T14:55:19.913Z,45.80
2019-04-03T14:57:39.605Z,46.00
2019-04-03T15:00:24.936Z,45.10
2019-04-03T15:02:41.496Z,45.20
2019-04-03T15:05:10.908Z,46.30
2019-04-03T15:07:40.387Z,44.10
2019-04-03T15:10:09.920Z,45.10
2019-04-03T15:12:39.971Z,45.20
2019-04-03T15:15:09.800Z,44.90
2019-04-03T15:17:38.915Z,46.30
2019-04-03T15:20:09.714Z,46.30
2019-04-03T15:22:39.319Z,44.70
2019-04-03T15:25:08.875Z,44.70
2019-04-03T15:27:38.241Z,44.40
2019-04-03T15:30:11.241Z,46.60
2019-04-03T15:32:40.159Z,44.90
2019-04-03T15:35:09.327Z,44.50
2019-04-03T15:37:40.842Z,44.90
2019-04-03T15:40:10.172Z,44.50
2019-04-03T15:42:41.296Z,44.80
2019-04-03T15:45:10.436Z,44.50
2019-04-03T15:47:44.984Z,44.50
2019-04-03T15:50:10.672Z,46.40
2019-04-03T15:52:39.550Z,45.40
2019-04-03T15:55:09.677Z,45.40
2019-04-03T15:57:39.955Z,45.30
2019-04-03T16:00:15.005Z,44.70
2019-04-03T16:02:45.684Z,45.20
2019-04-03T16:05:15.461Z,45.10
2019-04-03T16:07:44.947Z,45.10
2019-04-03T16:10:14.201Z,45.70
2019-04-03T16:12:43.989Z,46.20
2019-04-03T16:15:13.812Z,46.20
2019-04-03T16:17:43.182Z,45.90
2019-04-03T16:20:14.258Z,45.60
2019-04-03T16:22:43.870Z,45.10
2019-04-03T16:25:16.160Z,46.10
2019-04-03T16:27:43.402Z,46.20
2019-04-03T16:30:15.547Z,46.40
2019-04-03T16:32:43.455Z,47.20
2019-04-03T16:35:14.503Z,47.40
2019-04-03T16:37:43.807Z,47.70
2019-04-03T16:40:13.596Z,46.70
2019-04-03T16:42:43.252Z,47.60
2019-04-03T16:45:12.364Z,47.70
2019-04-03T16:47:44.083Z,49.60
2019-04-03T16:50:13.120Z,48.70
2019-04-03T16:52:42.319Z,49.30
2019-04-03T16:55:11.840Z,50.60
2019-04-03T16:57:40.825Z,50.70
2019-04-03T17:00:10.454Z,50.90
2019-04-03T17:02:39.344Z,51.30
2019-04-03T17:05:10.162Z,51.50
2019-04-03T17:07:39.304Z,51.70
2019-04-03T17:10:10.040Z,52.20
2019-04-03T17:12:38.725Z,52.30
2019-04-03T17:15:09.600Z,52.30
2019-04-03T17:17:39.187Z,52.90
2019-04-03T17:20:09.382Z,52.60
2019-04-03T17:22:40.748Z,52.70
2019-04-03T17:25:10.636Z,52.60
2019-04-03T17:27:39.494Z,52.40
2019-04-03T17:30:11.325Z,52.70
2019-04-03T17:32:40.196Z,53.30
2019-04-03T17:35:09.053Z,53.80
2019-04-03T17:37:38.432Z,53.80
2019-04-03T17:40:10.442Z,54.10
2019-04-03T17:42:40.162Z,54.60
2019-04-03T17:45:09.638Z,55.20
2019-04-03T17:47:38.461Z,56.20
2019-04-03T17:50:10.027Z,56.60
2019-04-03T17:52:38.965Z,56.70
2019-04-03T17:55:10.846Z,57.20
2019-04-03T17:57:39.925Z,57.10
2019-04-03T18:00:14.466Z,58.00
2019-04-03T18:02:43.228Z,58.30
2019-04-03T18:05:12.550Z,58.10
2019-04-03T18:07:41.478Z,58.40
2019-04-03T18:10:12.790Z,58.50
2019-04-03T18:12:41.316Z,58.90
2019-04-03T18:15:12.205Z,59.40
2019-04-03T18:17:41.076Z,59.70
2019-04-03T18:20:12.524Z,60.50
2019-04-03T18:22:41.165Z,61.40
2019-04-03T18:25:10.837Z,62.00
2019-04-03T18:27:39.667Z,63.00
2019-04-03T18:30:11.875Z,63.70
2019-04-03T18:32:40.509Z,63.70
2019-04-03T18:35:09.812Z,64.00
2019-04-03T18:37:40.835Z,64.80
2019-04-03T18:40:14.249Z,64.80
2019-04-03T18:42:41.415Z,65.10
2019-04-03T18:45:24.063Z,64.90
2019-04-03T18:47:45.822Z,66.30
2019-04-03T18:50:13.345Z,66.40
2019-04-03T18:52:42.391Z,66.80
2019-04-03T18:55:13.931Z,67.10
2019-04-03T18:57:43.301Z,67.30
2019-04-03T19:00:12.485Z,68.30
2019-04-03T19:02:41.333Z,67.90
2019-04-03T19:05:13.833Z,68.30
2019-04-03T19:07:40.823Z,68.50
2019-04-03T19:10:09.761Z,68.80
2019-04-03T19:12:38.609Z,69.60
2019-04-03T19:15:07.858Z,69.80
2019-04-03T19:17:36.717Z,69.70
2019-04-03T19:20:11.136Z,70.20
2019-04-03T19:22:39.614Z,70.00
2019-04-03T19:25:08.931Z,69.90
2019-04-03T19:27:37.772Z,70.10
2019-04-03T19:30:08.998Z,70.30
2019-04-03T19:32:37.848Z,70.80
2019-04-03T19:35:09.393Z,71.10
2019-04-03T19:37:38.797Z,71.30
2019-04-03T19:40:09.731Z,71.00
2019-04-03T19:42:38.805Z,71.60
2019-04-03T19:45:08.429Z,71.60
2019-04-03T19:47:37.293Z,71.90
2019-04-03T19:50:07.841Z,71.80
2019-04-03T19:52:37.421Z,72.40
2019-04-03T19:55:09.441Z,71.80
2019-04-03T19:57:38.333Z,72.20
2019-04-03T20:00:09.209Z,72.50
2019-04-03T20:02:38.534Z,71.90
2019-04-03T20:05:08.767Z,72.20
2019-04-03T20:07:37.694Z,72.20
2019-04-03T20:10:10.507Z,72.10
2019-04-03T20:12:39.261Z,72.30
2019-04-03T20:15:09.773Z,71.60
2019-04-03T20:17:38.559Z,71.80
2019-04-03T20:20:10.667Z,72.30
2019-04-03T20:22:42.407Z,72.20
2019-04-03T20:25:10.025Z,72.00
2019-04-03T20:27:38.939Z,72.00
2019-04-03T20:30:09.131Z,71.90
2019-04-03T20:32:40.036Z,72.20
2019-04-03T20:35:08.461Z,72.50
2019-04-03T20:37:37.336Z,71.90
2019-04-03T20:40:07.568Z,71.70
2019-04-03T20:42:36.402Z,72.10
2019-04-03T20:45:08.491Z,72.60
2019-04-03T20:47:37.316Z,72.40
2019-04-03T20:50:07.728Z,72.40
2019-04-03T20:52:37.205Z,72.20
2019-04-03T20:55:09.293Z,72.80
2019-04-03T20:57:38.077Z,73.40
2019-04-03T21:00:09.928Z,73.60
2019-04-03T21:02:41.236Z,74.00
2019-04-03T21:05:09.181Z,74.60
2019-04-03T21:07:37.965Z,74.90
2019-04-03T21:10:08.212Z,75.40
2019-04-03T21:12:37.076Z,75.20
2019-04-03T21:15:08.795Z,75.00
2019-04-03T21:17:37.013Z,74.90
2019-04-03T21:20:06.984Z,76.00
2019-04-03T21:22:35.868Z,75.20
2019-04-03T21:25:06.531Z,75.40
2019-04-03T21:27:35.378Z,75.50
2019-04-03T21:30:06.572Z,75.40
2019-04-03T21:32:35.428Z,75.70
2019-04-03T21:35:04.598Z,75.80
2019-04-03T21:37:33.379Z,75.70
2019-04-03T21:40:04.895Z,76.00
2019-04-03T21:42:32.725Z,76.40
2019-04-03T21:45:02.692Z,76.90
2019-04-03T21:47:32.099Z,76.60
2019-04-03T21:50:03.456Z,76.90
2019-04-03T21:52:31.519Z,77.10
2019-04-03T21:55:00.348Z,77.30
2019-04-03T21:57:29.179Z,76.70
2019-04-03T21:59:58.079Z,77.40
2019-04-03T22:02:27.032Z,77.10
2019-04-03T22:04:55.858Z,76.80
2019-04-03T22:07:28.260Z,77.20
2019-04-03T22:09:56.107Z,77.40
2019-04-03T22:12:24.884Z,77.20
2019-04-03T22:14:53.772Z,77.40
2019-04-03T22:17:22.638Z,77.40
2019-04-03T22:19:51.442Z,77.90
2019-04-03T22:22:20.269Z,77.70
2019-04-03T22:24:49.116Z,77.80
2019-04-03T22:27:17.964Z,77.60
2019-04-03T22:29:46.827Z,77.90
2019-04-03T22:32:15.660Z,77.70
2019-04-03T22:34:44.500Z,78.10
2019-04-03T22:37:13.397Z,78.10
2019-04-03T22:39:42.178Z,78.50
2019-04-03T22:42:10.988Z,78.60
2019-04-03T22:44:39.900Z,78.40
2019-04-03T22:47:08.726Z,78.10
2019-04-03T22:49:37.571Z,78.40
2019-04-03T22:52:06.888Z,78.60
2019-04-03T22:54:36.936Z,78.90
2019-04-03T22:57:05.749Z,79.20
2019-04-03T22:59:34.624Z,78.90
2019-04-03T23:02:03.445Z,79.00
2019-04-03T23:04:32.269Z,78.90
2019-04-03T23:07:01.150Z,78.40
2019-04-03T23:09:29.954Z,77.70
2019-04-03T23:11:58.795Z,78.20
2019-04-03T23:14:27.692Z,78.30
2019-04-03T23:16:56.532Z,78.40
2019-04-03T23:19:25.340Z,78.50
2019-04-03T23:21:54.779Z,79.60
2019-04-03T23:24:24.284Z,78.50
2019-04-03T23:26:53.124Z,78.90
2019-04-03T23:29:22.021Z,79.00
2019-04-03T23:31:50.852Z,79.10
2019-04-03T23:34:19.731Z,78.60
2019-04-03T23:36:48.522Z,78.60
2019-04-03T23:39:17.361Z,78.10
2019-04-03T23:41:46.207Z,78.00
2019-04-03T23:44:15.052Z,77.70
2019-04-03T23:46:45.506Z,78.30
2019-04-03T23:49:14.500Z,77.10
2019-04-03T23:51:43.364Z,76.70
2019-04-03T23:54:12.196Z,76.30
2019-04-03T23:56:41.786Z,75.90
2019-04-03T23:59:12.803Z,75.80
